Time;durP1;ratioP1;P1;durP2;ratioP2;P2;SDS_P1;SDS_P2;PMS_P1;PMS_P2;Temp;Humidity;BMP_temperature;BMP_pressure;BME280_temperature;BME280_humidity;BME280_pressure;Samples;Min_cycle;Max_cycle;Signal;HPM_P1;HPM_P2
2022/11/21 00:01:19;;;;;;;12.53;6.30;;;;;;;7.51;95.33;98294.96;1701729;84;21030;-79
2022/11/21 00:03:47;;;;;;;12.63;6.28;;;;;;;7.52;94.78;98295.80;1701886;83;21609;-80
2022/11/21 00:06:16;;;;;;;12.58;6.53;;;;;;;7.50;94.77;98290.70;1710772;84;21081;-80
2022/11/21 00:08:44;;;;;;;17.15;7.33;;;;;;;7.50;95.02;98282.94;1710323;83;21075;-79
2022/11/21 00:11:12;;;;;;;12.78;6.00;;;;;;;7.52;94.88;98278.98;1694444;84;21046;-79
2022/11/21 00:13:40;;;;;;;12.00;5.85;;;;;;;7.50;94.80;98275.59;1709112;83;21015;-79
2022/11/21 00:16:11;;;;;;;11.00;4.87;;;;;;;7.39;95.03;98275.88;1705964;84;21137;-79
2022/11/21 00:18:39;;;;;;;11.05;5.15;;;;;;;7.40;95.05;98279.31;1709905;83;21418;-78
2022/11/21 00:21:13;;;;;;;11.55;4.90;;;;;;;7.40;94.67;98280.60;1709980;84;21336;-78
2022/11/21 00:23:41;;;;;;;;;;;;;;;7.36;94.97;98273.36;1712603;84;21026;-80
2022/11/21 00:26:12;;;;;;;9.23;4.55;;;;;;;7.31;94.94;98262.30;1710593;83;20865;-80
2022/11/21 00:28:39;;;;;;;10.18;5.53;;;;;;;7.24;95.03;98257.73;1711221;83;21023;-80
2022/11/21 00:31:07;;;;;;;9.63;5.33;;;;;;;7.25;95.34;98259.88;1710356;84;21041;-81
2022/11/21 00:33:36;;;;;;;11.55;5.03;;;;;;;7.20;95.65;98245.75;1709229;84;21022;-80
2022/11/21 00:36:08;;;;;;;11.63;5.47;;;;;;;7.27;95.07;98251.63;1709533;84;21065;-80
2022/11/21 00:38:36;;;;;;;7.67;4.80;;;;;;;7.25;95.11;98245.66;1709766;84;20963;-81
2022/11/21 00:41:05;;;;;;;14.78;7.33;;;;;;;7.18;95.66;98237.19;1710456;83;21106;-80
2022/11/21 00:43:33;;;;;;;9.98;5.72;;;;;;;7.15;95.56;98230.81;1707287;83;22242;-80
2022/11/21 00:46:01;;;;;;;13.45;6.55;;;;;;;7.13;95.98;98241.19;1707863;84;21058;-80
2022/11/21 00:48:30;;;;;;;10.48;5.42;;;;;;;7.17;96.07;98239.38;1708683;83;21026;-81
2022/11/21 00:51:02;;;;;;;8.65;4.47;;;;;;;7.22;96.09;98235.38;1709695;84;21046;-80
2022/11/21 00:53:30;;;;;;;9.13;4.50;;;;;;;7.24;95.78;98231.89;1691097;84;21030;-77
2022/11/21 00:55:58;;;;;;;10.88;4.22;;;;;;;7.23;95.89;98218.99;1709091;84;21051;-78
2022/11/21 00:58:26;;;;;;;7.67;4.40;;;;;;;7.23;95.50;98218.54;1709774;83;21010;-78
2022/11/21 01:01:05;;;;;;;8.53;4.62;;;;;;;7.24;95.96;98217.67;1709794;83;21070;-78
2022/11/21 01:03:34;;;;;;;11.18;5.00;;;;;;;7.27;95.71;98210.27;1690049;83;21054;-79
2022/11/21 01:06:06;;;;;;;9.25;4.80;;;;;;;7.21;95.69;98204.80;1711691;83;21621;-79
2022/11/21 01:08:36;;;;;;;7.72;4.40;;;;;;;7.16;95.65;98193.72;1709543;83;21009;-79
2022/11/21 01:11:06;;;;;;;7.45;3.95;;;;;;;7.14;95.59;98192.91;1708453;82;21552;-81
2022/11/21 01:13:35;;;;;;;7.72;3.87;;;;;;;7.10;95.35;98193.88;1709109;84;21042;-79
2022/11/21 01:16:16;;;;;;;8.03;3.75;;;;;;;7.04;95.55;98188.88;1697013;84;21163;-80
2022/11/21 01:18:44;;;;;;;7.40;4.08;;;;;;;7.04;95.37;98187.13;1690358;83;21991;-80
2022/11/21 01:21:19;;;;;;;6.20;3.85;;;;;;;6.95;95.73;98184.34;1703682;83;21541;-80
2022/11/21 01:23:47;;;;;;;7.92;3.95;;;;;;;6.99;95.48;98182.98;1701808;84;21034;-84
2022/11/21 01:26:24;;;;;;;9.20;3.35;;;;;;;6.94;95.43;98177.50;1703191;83;21111;-80
2022/11/21 01:28:52;;;;;;;6.95;3.85;;;;;;;6.86;95.80;98165.19;1702293;83;21057;-81
2022/11/21 01:31:26;;;;;;;6.42;3.25;;;;;;;6.86;95.76;98161.76;1701886;83;21113;-81
2022/11/21 01:33:56;;;;;;;6.95;3.52;;;;;;;6.89;95.66;98163.83;1695305;84;21086;-78
2022/11/21 01:36:30;;;;;;;7.50;3.52;;;;;;;6.83;95.83;98164.44;1693532;83;21970;-82
2022/11/21 01:39:02;;;;;;;5.08;3.00;;;;;;;6.84;95.89;98160.50;1694664;84;21060;-80
2022/11/21 01:41:34;;;;;;;5.75;3.42;;;;;;;6.82;95.83;98153.68;1697801;84;21003;-78
2022/11/21 01:44:22;;;;;;;9.88;3.77;;;;;;;6.83;95.33;98151.06;1700578;83;21038;-80
2022/11/21 01:46:51;;;;;;;6.67;3.50;;;;;;;6.84;95.43;98148.87;1710259;83;21061;-81
2022/11/21 01:49:30;;;;;;;4.60;2.60;;;;;;;6.80;95.73;98140.80;1705548;84;21316;-80
2022/11/21 01:52:26;;;;;;;6.17;2.70;;;;;;;6.78;95.59;98137.41;1710430;83;21613;-80
2022/11/21 01:55:01;;;;;;;4.50;2.85;;;;;;;6.76;95.65;98120.67;1707471;84;21103;-80
2022/11/21 01:57:43;;;;;;;3.72;2.10;;;;;;;6.73;95.76;98112.15;1710180;83;21519;-80
2022/11/21 02:00:20;;;;;;;6.15;2.70;;;;;;;6.75;95.66;98100.04;1708881;84;21918;-81
2022/11/21 02:02:55;;;;;;;5.10;2.75;;;;;;;6.73;95.37;98090.19;1710088;84;21109;-80
2022/11/21 02:05:30;;;;;;;6.78;2.37;;;;;;;6.66;95.63;98080.44;1706986;84;21018;-80
2022/11/21 02:08:09;;;;;;;5.90;2.20;;;;;;;6.65;95.51;98076.62;1709720;83;21066;-79
2022/11/21 02:10:41;;;;;;;5.00;2.30;;;;;;;6.65;95.71;98076.62;1700215;84;21082;-80
2022/11/21 02:13:09;;;;;;;4.60;2.55;;;;;;;6.61;95.47;98058.23;1709958;84;21042;-82
2022/11/21 02:15:36;;;;;;;3.67;1.90;;;;;;;6.59;95.85;98038.05;1708757;84;21161;-81
2022/11/21 02:18:10;;;;;;;4.97;2.42;;;;;;;6.56;95.67;98038.53;1708760;84;20998;-80
2022/11/21 02:20:41;;;;;;;3.80;1.95;;;;;;;6.54;95.96;98039.44;1709305;84;21018;-80
2022/11/21 02:23:19;;;;;;;4.62;2.27;;;;;;;6.57;95.46;98042.80;1711125;83;21030;-80
2022/11/21 02:25:47;;;;;;;4.20;2.00;;;;;;;6.51;95.98;98050.70;1709665;84;21025;-80
2022/11/21 02:28:18;;;;;;;5.30;1.87;;;;;;;6.50;95.61;98048.16;1709266;83;21105;-81
2022/11/21 02:30:46;;;;;;;4.20;2.02;;;;;;;6.48;95.48;98048.19;1708914;84;22325;-80
2022/11/21 02:33:14;;;;;;;2.33;1.60;;;;;;;6.48;95.56;98040.44;1710262;84;21053;-81
2022/11/21 02:35:41;;;;;;;3.35;2.30;;;;;;;6.48;95.44;98038.31;1709327;83;21542;-80
2022/11/21 02:38:30;;;;;;;2.80;1.70;;;;;;;6.44;95.63;98025.08;1710202;83;21620;-80
2022/11/21 02:41:25;;;;;;;5.28;1.60;;;;;;;6.40;95.69;98025.59;1710419;83;21086;-80
2022/11/21 02:44:12;;;;;;;4.60;1.85;;;;;;;6.39;95.55;98016.16;1710507;83;21566;-82
2022/11/21 02:46:50;;;;;;;3.05;1.70;;;;;;;6.35;95.84;98015.39;1708995;84;21030;-79
2022/11/21 02:49:22;;;;;;;2.70;1.60;;;;;;;6.32;95.51;98014.16;1682658;84;21018;-80
2022/11/21 02:51:50;;;;;;;3.70;1.80;;;;;;;6.32;95.88;98010.74;1709910;83;21026;-80
2022/11/21 02:54:18;;;;;;;3.55;1.80;;;;;;;6.34;95.57;98011.09;1710235;83;21042;-79
2022/11/21 02:56:45;;;;;;;5.65;1.72;;;;;;;6.40;95.42;98005.39;1709740;84;21038;-80
2022/11/21 02:59:12;;;;;;;5.92;2.17;;;;;;;6.37;95.40;98002.45;1709791;83;21018;-80
2022/11/21 03:01:40;;;;;;;3.12;1.80;;;;;;;6.34;95.56;98003.80;1709728;84;21081;-80
2022/11/21 03:04:07;;;;;;;2.42;1.27;;;;;;;6.38;95.33;97998.97;1698650;84;21061;-80
2022/11/21 03:06:34;;;;;;;2.80;1.32;;;;;;;6.37;95.43;97999.88;1710223;84;21034;-80
2022/11/21 03:09:02;;;;;;;4.35;1.52;;;;;;;6.40;95.37;98004.94;1710290;83;21030;-81
2022/11/21 03:11:30;;;;;;;3.20;1.52;;;;;;;6.42;95.24;97996.70;1710423;83;21586;-80
2022/11/21 03:13:57;;;;;;;4.40;1.67;;;;;;;6.43;94.98;97990.67;1709563;83;21027;-80
2022/11/21 03:16:24;;;;;;;2.55;1.32;;;;;;;6.48;94.78;97992.67;1713451;82;21562;-79
2022/11/21 03:18:52;;;;;;;3.08;1.75;;;;;;;6.45;94.63;97985.02;1710098;83;21086;-80
2022/11/21 03:21:19;;;;;;;1.90;1.20;;;;;;;6.42;94.90;97988.13;1708743;83;21164;-80
2022/11/21 03:23:46;;;;;;;1.95;1.17;;;;;;;6.43;94.70;97976.47;1709778;84;21323;-79
2022/11/21 03:26:14;;;;;;;2.17;1.10;;;;;;;6.46;94.87;97974.25;1701753;83;21038;-80
2022/11/21 03:28:41;;;;;;;2.98;1.32;;;;;;;6.47;94.58;97977.24;1703323;83;21038;-80
2022/11/21 03:31:09;;;;;;;2.15;1.30;;;;;;;6.50;94.92;97974.11;1718968;83;21103;-81
2022/11/21 03:33:36;;;;;;;2.27;1.35;;;;;;;6.55;94.80;97976.59;1721180;83;21002;-81
2022/11/21 03:36:04;;;;;;;3.80;1.30;;;;;;;6.56;94.48;97984.31;1721675;83;21031;-80
2022/11/21 03:38:32;;;;;;;2.72;1.60;;;;;;;6.59;94.70;97991.56;1721565;83;21034;-81
2022/11/21 03:41:28;;;;;;;2.50;1.17;;;;;;;6.66;95.23;97981.45;1721333;83;21023;-80
2022/11/21 03:43:34;;;;;;;3.27;1.52;;;;;;;6.73;94.75;97988.16;1717573;83;21099;-80
2022/11/21 03:46:01;;;;;;;3.37;1.80;;;;;;;6.74;94.47;97991.13;1721844;83;21105;-81
2022/11/21 03:48:28;;;;;;;2.60;1.12;;;;;;;6.74;94.33;97986.84;1720688;83;21023;-81
2022/11/21 03:50:56;;;;;;;3.17;1.62;;;;;;;6.78;93.95;97987.58;1721122;83;21015;-80
2022/11/21 03:53:23;;;;;;;2.62;1.67;;;;;;;6.74;93.81;97988.55;1721446;83;21003;-81
2022/11/21 03:55:51;;;;;;;2.65;1.50;;;;;;;6.74;93.98;97982.09;1721923;83;21051;-80
2022/11/21 03:58:18;;;;;;;3.10;2.10;;;;;;;6.74;94.33;97988.55;1721015;83;21003;-81
2022/11/21 04:00:47;;;;;;;3.52;1.70;;;;;;;6.81;94.83;97987.50;1721333;83;21042;-81
2022/11/21 04:03:14;;;;;;;2.87;1.80;;;;;;;6.87;95.15;97981.33;1722776;83;21022;-80
2022/11/21 04:05:43;;;;;;;2.15;1.50;;;;;;;6.90;94.69;97978.64;1717550;83;21574;-81
2022/11/21 04:08:11;;;;;;;3.10;2.15;;;;;;;6.88;94.40;97975.25;1721113;83;21042;-80
2022/11/21 04:10:39;;;;;;;3.42;1.70;;;;;;;6.84;94.17;97972.36;1715156;83;21620;-80
2022/11/21 04:13:06;;;;;;;4.05;1.77;;;;;;;6.81;94.06;97973.75;1692089;83;21656;-81
2022/11/21 04:15:33;;;;;;;3.72;1.75;;;;;;;6.74;93.90;97975.21;1715860;82;21980;-81
2022/11/21 04:18:01;;;;;;;2.83;1.60;;;;;;;6.72;94.21;97974.37;1721315;83;21042;-81
2022/11/21 04:20:28;;;;;;;2.42;1.40;;;;;;;6.73;94.03;97967.50;1700893;83;21009;-80
2022/11/21 04:22:55;;;;;;;3.22;1.90;;;;;;;6.74;94.39;97955.84;1721441;83;21043;-80
2022/11/21 04:25:23;;;;;;;4.28;2.50;;;;;;;6.77;94.29;97953.16;1712958;83;21048;-81
2022/11/21 04:27:50;;;;;;;4.80;2.12;;;;;;;6.82;94.45;97949.14;1715393;83;22285;-79
2022/11/21 04:30:18;;;;;;;5.05;1.80;;;;;;;6.87;94.68;97945.16;1706227;83;21058;-80
2022/11/21 04:32:46;;;;;;;6.80;2.33;;;;;;;6.90;94.49;97938.59;1709026;83;21026;-81
2022/11/21 04:35:14;;;;;;;6.10;2.60;;;;;;;6.92;94.40;97944.56;1710351;84;21086;-80
2022/11/21 04:37:41;;;;;;;4.20;2.20;;;;;;;6.92;93.90;97947.14;1709420;82;21073;-80
2022/11/21 04:40:10;;;;;;;3.22;1.90;;;;;;;6.89;94.08;97944.20;1710535;84;21570;-80
2022/11/21 04:42:44;;;;;;;4.22;2.30;;;;;;;6.91;94.13;97942.88;1709934;84;21028;-81
2022/11/21 04:45:14;;;;;;;12.28;6.90;;;;;;;6.93;94.07;97932.89;1711728;84;21022;-80
2022/11/21 04:47:44;;;;;;;6.55;3.72;;;;;;;6.94;93.88;97927.27;1709523;82;21021;-79
2022/11/21 04:50:14;;;;;;;12.58;6.65;;;;;;;7.00;94.20;97926.25;1712741;82;21049;-79
2022/11/21 04:52:44;;;;;;;7.80;3.33;;;;;;;7.01;93.98;97927.51;1709846;82;21661;-78
2022/11/21 04:55:12;;;;;;;7.35;2.22;;;;;;;7.01;93.57;97926.67;1709563;82;21070;-80
2022/11/21 04:57:39;;;;;;;12.40;5.30;;;;;;;6.99;93.54;97923.28;1711236;82;21407;-78
2022/11/21 05:00:08;;;;;;;14.45;5.55;;;;;;;6.92;93.25;97916.14;1709778;82;21038;-80
2022/11/21 05:02:36;;;;;;;5.97;2.92;;;;;;;6.87;93.34;97914.98;1709645;83;21582;-77
2022/11/21 05:05:04;;;;;;;5.60;3.12;;;;;;;6.86;93.26;97904.69;1709567;82;21609;-78
2022/11/21 05:07:32;;;;;;;8.50;3.10;;;;;;;6.85;93.19;97912.06;1709402;83;21545;-77
2022/11/21 05:09:59;;;;;;;7.60;3.80;;;;;;;6.84;93.34;97905.19;1709377;84;22220;-78
2022/11/21 05:15:14;;;;;;;16.57;7.67;;;;;;;6.80;93.41;97897.13;1708583;84;21848;-78
2022/11/21 05:17:42;;;;;;;14.60;5.90;;;;;;;6.79;93.46;97895.00;1689139;82;22223;-79
2022/11/21 05:20:11;;;;;;;7.78;4.05;;;;;;;6.77;93.20;97892.91;1709860;82;21498;-79
2022/11/21 05:22:38;;;;;;;5.03;2.85;;;;;;;6.72;93.25;97886.55;1710220;83;21081;-78
2022/11/21 05:25:06;;;;;;;13.85;5.55;;;;;;;6.71;93.46;97890.05;1709875;83;21078;-79
2022/11/21 05:27:34;;;;;;;12.43;5.33;;;;;;;6.71;93.48;97891.79;1710021;82;20999;-80
2022/11/21 05:30:01;;;;;;;19.32;8.53;;;;;;;6.73;94.10;97883.09;1708485;83;21653;-79
2022/11/21 05:32:29;;;;;;;18.05;8.20;;;;;;;6.79;94.05;97894.16;1701649;83;21086;-79
2022/11/21 05:34:56;;;;;;;8.28;3.42;;;;;;;6.82;93.93;97893.59;1705912;84;21046;-79
2022/11/21 05:37:23;;;;;;;4.67;2.15;;;;;;;6.82;93.92;97894.89;1706239;83;21565;-79
2022/11/21 05:39:51;;;;;;;4.10;2.40;;;;;;;6.82;93.68;97885.84;1706019;84;22315;-79
2022/11/21 05:43:44;;;;;;;5.45;2.75;;;;;;;6.83;93.84;97888.84;1702274;84;21078;-79
2022/11/21 05:44:48;;;;;;;5.03;3.20;;;;;;;6.87;94.05;97887.86;1702266;84;21049;-78
2022/11/21 05:47:15;;;;;;;7.17;2.60;;;;;;;6.92;93.93;97899.34;1706411;84;21628;-79
2022/11/21 05:49:42;;;;;;;12.13;4.20;;;;;;;6.93;94.05;97902.34;1686097;83;21125;-79
2022/11/21 05:52:10;;;;;;;10.63;3.95;;;;;;;6.92;93.78;97900.21;1705977;84;21054;-80
2022/11/21 05:54:38;;;;;;;8.50;3.20;;;;;;;6.90;93.78;97900.70;1705335;84;21557;-79
2022/11/21 05:57:05;;;;;;;7.10;3.12;;;;;;;6.93;93.86;97901.05;1706388;83;21168;-78
2022/11/21 05:59:33;;;;;;;5.83;2.90;;;;;;;6.92;94.21;97909.25;1705374;82;21014;-78
2022/11/21 06:04:46;;;;;;;15.10;4.97;;;;;;;6.92;93.67;97909.25;1703061;83;21577;-79
2022/11/21 06:07:13;;;;;;;8.48;4.25;;;;;;;6.86;93.62;97918.91;1705038;83;21620;-79
2022/11/21 06:09:42;;;;;;;9.95;3.65;;;;;;;6.82;93.46;97912.97;1706010;84;21537;-79
2022/11/21 06:12:10;;;;;;;11.70;3.52;;;;;;;6.80;93.57;97919.92;1707525;82;21046;-79
2022/11/21 06:14:37;;;;;;;10.10;4.05;;;;;;;6.72;93.46;97910.25;1706477;83;21115;-80
2022/11/21 06:17:04;;;;;;;6.95;3.87;;;;;;;6.60;93.71;97913.19;1705450;84;21220;-79
2022/11/21 06:19:32;;;;;;;6.25;3.12;;;;;;;6.56;94.13;97915.88;1706561;84;21033;-78
2022/11/21 06:21:59;;;;;;;4.50;2.72;;;;;;;6.51;94.40;97922.05;1706102;84;21125;-79
2022/11/21 06:24:27;;;;;;;6.20;3.08;;;;;;;6.50;94.23;97921.18;1706362;84;21046;-79
2022/11/21 06:26:54;;;;;;;4.97;2.72;;;;;;;6.49;94.70;97922.53;1706106;84;21074;-79
2022/11/21 06:29:21;;;;;;;8.20;3.80;;;;;;;6.52;94.22;97930.19;1702684;84;20990;-78
2022/11/21 06:31:49;;;;;;;8.30;6.12;;;;;;;6.42;94.97;97932.16;1708134;83;21101;-80
2022/11/21 06:34:17;;;;;;;7.05;4.12;;;;;;;6.44;94.22;97934.71;1709431;82;22204;-79
2022/11/21 06:36:44;;;;;;;6.90;3.58;;;;;;;6.40;95.33;97933.94;1710031;82;21089;-79
2022/11/21 06:39:11;;;;;;;6.45;3.42;;;;;;;6.43;94.76;97934.33;1709994;84;21042;-79
2022/11/21 06:41:39;;;;;;;6.30;3.50;;;;;;;6.45;94.96;97940.30;1710666;82;21052;-79
2022/11/21 06:44:07;;;;;;;5.67;3.45;;;;;;;6.40;94.96;97937.81;1710401;82;21017;-79
2022/11/21 06:46:34;;;;;;;9.70;4.62;;;;;;;6.40;95.22;97950.72;1710535;83;21101;-79
2022/11/21 06:49:02;;;;;;;5.97;4.33;;;;;;;6.40;94.92;97944.27;1702895;83;20987;-79
2022/11/21 06:51:30;;;;;;;7.70;4.47;;;;;;;6.41;95.10;97953.72;1711352;83;22308;-81
2022/11/21 06:53:58;;;;;;;5.05;2.65;;;;;;;6.40;95.02;97945.55;1711838;83;21613;-80
2022/11/21 06:56:28;;;;;;;3.17;1.75;;;;;;;6.45;95.29;97953.20;1711336;82;21153;-79
2022/11/21 06:58:57;;;;;;;5.45;2.10;;;;;;;6.43;94.97;97951.95;1710578;82;21065;-80
2022/11/21 07:01:25;;;;;;;4.47;2.22;;;;;;;6.48;95.44;97961.69;1711237;82;21024;-80
2022/11/21 07:03:54;;;;;;;4.55;2.05;;;;;;;6.43;95.24;97962.27;1710524;82;22271;-78
2022/11/21 07:06:22;;;;;;;7.08;2.42;;;;;;;6.44;95.74;97959.23;1717544;82;21010;-79
2022/11/21 07:08:53;;;;;;;3.22;2.17;;;;;;;6.42;95.70;97961.02;1714882;82;21026;-78
2022/11/21 07:11:20;;;;;;;5.28;2.15;;;;;;;6.38;96.25;97953.79;1711133;82;21084;-80
2022/11/21 07:13:48;;;;;;;6.50;2.70;;;;;;;6.38;95.86;97953.79;1714202;82;21097;-79
2022/11/21 07:16:15;;;;;;;5.10;2.80;;;;;;;6.34;96.92;97958.18;1708030;82;21105;-79
2022/11/21 07:18:44;;;;;;;5.33;3.15;;;;;;;6.36;96.67;97952.53;1711181;82;21480;-79
2022/11/21 07:21:12;;;;;;;7.35;3.02;;;;;;;6.38;96.46;97962.83;1706503;82;20994;-78
2022/11/21 07:23:39;;;;;;;5.72;2.83;;;;;;;6.40;96.64;97959.75;1709143;82;21079;-77
2022/11/21 07:26:09;;;;;;;8.75;4.20;;;;;;;6.44;96.96;97957.49;1718089;82;21499;-77
2022/11/21 07:28:37;;;;;;;9.58;3.87;;;;;;;6.50;96.94;97960.36;1716416;82;21029;-78
2022/11/21 07:31:05;;;;;;;5.35;2.87;;;;;;;6.55;96.74;97960.64;1709133;82;21047;-79
2022/11/21 07:33:32;;;;;;;5.45;2.77;;;;;;;6.58;96.37;97968.75;1709405;82;21055;-78
2022/11/21 07:36:00;;;;;;;6.35;3.17;;;;;;;6.62;96.10;97966.48;1705003;82;21069;-77
2022/11/21 07:38:27;;;;;;;5.03;2.37;;;;;;;6.63;96.06;97966.06;1711671;82;21056;-79
2022/11/21 07:40:56;;;;;;;6.00;2.85;;;;;;;6.66;95.71;97965.96;1713229;82;21050;-78
2022/11/21 07:43:24;;;;;;;8.70;3.50;;;;;;;6.65;96.05;97970.73;1710855;82;21058;-77
2022/11/21 07:45:51;;;;;;;5.47;2.83;;;;;;;6.70;96.58;97966.27;1714389;82;21275;-80
2022/11/21 07:48:19;;;;;;;5.72;3.22;;;;;;;6.76;96.22;97971.27;1714838;82;21026;-78
2022/11/21 07:50:46;;;;;;;6.47;3.10;;;;;;;6.80;96.00;97972.87;1712867;82;21161;-79
2022/11/21 07:53:14;;;;;;;6.08;3.15;;;;;;;6.87;95.72;97974.87;1710648;82;21025;-78
2022/11/21 07:55:42;;;;;;;5.25;2.90;;;;;;;6.80;95.43;97976.75;1707502;82;21078;-78
2022/11/21 07:58:13;;;;;;;8.20;4.08;;;;;;;6.82;95.69;97980.14;1717580;82;22099;-77
2022/11/21 08:00:41;;;;;;;8.88;4.65;;;;;;;6.83;95.60;97981.01;1719882;82;21085;-78
2022/11/21 08:03:10;;;;;;;4.67;2.95;;;;;;;6.83;95.59;97983.14;1698480;83;21060;-79
2022/11/21 08:05:43;;;;;;;4.92;2.83;;;;;;;6.88;96.06;97983.00;1709616;82;21082;-78
2022/11/21 08:08:12;;;;;;;7.42;3.10;;;;;;;6.90;96.25;97983.80;1709781;82;21085;-80
2022/11/21 08:10:43;;;;;;;4.00;2.12;;;;;;;6.97;96.39;97990.05;1667532;84;21034;-76
2022/11/21 08:13:11;;;;;;;7.30;2.72;;;;;;;7.06;95.65;97984.22;1709912;82;21062;-76
2022/11/21 08:15:39;;;;;;;5.75;2.22;;;;;;;7.00;95.61;97990.86;1708990;82;21019;-77
2022/11/21 08:18:13;;;;;;;4.28;2.30;;;;;;;7.02;95.92;97988.63;1695229;83;21015;-78
2022/11/21 08:20:41;;;;;;;3.67;1.90;;;;;;;7.05;95.78;97992.42;1699552;83;21038;-79
2022/11/21 08:23:09;;;;;;;5.80;2.10;;;;;;;7.02;95.36;97996.37;1716194;82;21057;-78
2022/11/21 08:25:39;;;;;;;4.22;2.00;;;;;;;7.06;95.33;98004.89;1710593;82;21541;-78
2022/11/21 08:28:09;;;;;;;4.05;1.87;;;;;;;6.99;95.55;98009.39;1713353;82;21046;-78
2022/11/21 08:30:38;;;;;;;3.52;2.02;;;;;;;7.00;95.79;98011.08;1700219;83;21034;-77
2022/11/21 08:33:06;;;;;;;2.55;1.52;;;;;;;7.02;95.89;98014.46;1683605;83;21006;-79
2022/11/21 08:35:39;;;;;;;5.05;2.20;;;;;;;7.03;95.75;98012.75;1713894;83;21077;-78
2022/11/21 08:38:07;;;;;;;3.42;2.00;;;;;;;7.04;95.72;98029.94;1712163;83;21015;-79
2022/11/21 08:40:35;;;;;;;4.22;2.40;;;;;;;7.07;95.79;98019.52;1711113;83;21034;-78
2022/11/21 08:43:06;;;;;;;3.60;2.10;;;;;;;7.13;95.88;98024.52;1701279;82;21527;-79
2022/11/21 08:45:36;;;;;;;9.95;3.08;;;;;;;7.14;95.77;98027.06;1690205;83;21070;-79
2022/11/21 08:48:10;;;;;;;7.75;3.52;;;;;;;7.17;96.00;98028.70;1701682;83;20970;-78
2022/11/21 08:50:37;;;;;;;;;;;;;;;7.18;95.57;98025.22;1703464;83;21030;-79
2022/11/21 08:53:05;;;;;;;6.12;2.92;;;;;;;7.20;95.58;98036.81;1701991;83;20144;-79
2022/11/21 08:55:32;;;;;;;5.75;2.33;;;;;;;7.22;95.24;98044.08;1719157;83;21011;-78
2022/11/21 08:58:00;;;;;;;7.53;2.60;;;;;;;7.19;95.32;98039.85;1700278;83;21060;-78
2022/11/21 09:00:28;;;;;;;5.55;2.20;;;;;;;7.23;95.58;98039.33;1700345;83;21030;-78
2022/11/21 09:02:55;;;;;;;4.42;2.08;;;;;;;7.32;95.51;98036.45;1717336;82;22162;-78
2022/11/21 09:05:23;;;;;;;3.17;2.00;;;;;;;7.29;95.39;98038.69;1698106;83;22092;-77
2022/11/21 09:07:57;;;;;;;7.45;2.90;;;;;;;7.30;95.29;98039.11;1720599;83;21015;-77
2022/11/21 09:10:26;;;;;;;6.60;3.00;;;;;;;7.29;95.34;98038.69;1700154;83;21053;-78
2022/11/21 09:12:58;;;;;;;7.37;2.70;;;;;;;7.30;95.50;98042.98;1708769;83;21307;-79
2022/11/21 09:18:13;;;;;;;3.15;1.75;;;;;;;7.31;95.47;98045.95;1700344;83;21010;-79
2022/11/21 09:20:43;;;;;;;4.40;1.85;;;;;;;7.27;95.37;98044.80;1720449;83;21650;-76
2022/11/21 09:23:14;;;;;;;3.90;1.85;;;;;;;7.28;95.59;98043.48;1700132;83;21303;-78
2022/11/21 09:25:42;;;;;;;5.50;2.60;;;;;;;7.31;96.10;98045.95;1720518;83;21030;-79
2022/11/21 09:28:12;;;;;;;4.33;2.35;;;;;;;7.31;95.50;98046.41;1713887;83;21070;-78
2022/11/21 09:30:40;;;;;;;3.17;2.00;;;;;;;7.34;95.44;98043.72;1685562;83;21031;-78
2022/11/21 09:33:15;;;;;;;3.98;2.10;;;;;;;7.37;95.44;98047.07;1702633;83;22129;-79
2022/11/21 09:35:43;;;;;;;2.83;1.60;;;;;;;7.34;95.56;98042.00;1667808;83;21664;-79
2022/11/21 09:38:10;;;;;;;2.92;1.65;;;;;;;7.36;95.59;98042.80;1693773;83;21051;-78
2022/11/21 09:40:45;;;;;;;3.17;1.92;;;;;;;7.34;95.21;98045.88;1706460;82;21073;-79
2022/11/21 09:43:23;;;;;;;3.45;1.70;;;;;;;7.33;95.51;98041.59;1682453;84;21038;-76
2022/11/21 09:45:58;;;;;;;3.90;1.80;;;;;;;7.37;95.49;98043.64;1713815;82;21613;-78
2022/11/21 09:48:54;;;;;;;4.08;1.55;;;;;;;7.44;95.56;98047.77;1720440;82;21070;-79
2022/11/21 09:51:25;;;;;;;3.00;1.70;;;;;;;7.47;95.33;98051.53;1674854;83;21343;-78
2022/11/21 09:54:06;;;;;;;2.95;1.40;;;;;;;7.46;95.20;98051.57;1686207;83;21508;-76
2022/11/21 09:56:38;;;;;;;3.17;1.67;;;;;;;7.46;95.26;98047.69;1692084;83;21081;-78
2022/11/21 09:59:37;;;;;;;2.85;1.90;;;;;;;7.49;95.19;98039.41;1668661;84;21071;-79
2022/11/21 10:02:21;;;;;;;2.77;1.65;;;;;;;7.53;95.19;98046.63;1700179;83;21570;-79
2022/11/21 10:04:50;;;;;;;3.50;1.47;;;;;;;7.55;95.29;98053.44;1707845;82;21545;-78
2022/11/21 10:07:29;;;;;;;2.25;1.30;;;;;;;7.62;94.71;98051.55;1707234;83;21027;-79
2022/11/21 10:10:51;;;;;;;2.83;1.30;;;;;;;7.63;94.97;98057.10;1698356;84;21597;-78
2022/11/21 10:13:42;;;;;;;5.28;2.15;;;;;;;7.67;93.90;98057.41;1711810;82;20999;-78
2022/11/21 10:16:42;;;;;;;5.95;2.52;;;;;;;7.73;93.82;98053.34;1705952;82;21050;-79
2022/11/21 10:19:41;;;;;;;4.95;1.90;;;;;;;7.76;93.55;98057.14;1708021;83;21038;-79
2022/11/21 10:22:53;;;;;;;2.80;1.50;;;;;;;7.77;92.73;98057.53;1674250;84;21043;-78
2022/11/21 10:25:29;;;;;;;4.00;1.80;;;;;;;7.84;93.22;98053.45;1698513;84;21296;-77
2022/11/21 10:28:07;;;;;;;2.47;1.80;;;;;;;7.79;93.33;98057.48;1695871;84;21070;-78
2022/11/21 10:30:39;;;;;;;5.45;2.00;;;;;;;7.79;92.89;98054.90;1676606;83;20983;-77
2022/11/21 10:33:14;;;;;;;3.20;1.75;;;;;;;7.82;92.76;98055.24;1694534;83;21097;-77
2022/11/21 10:35:47;;;;;;;3.12;1.70;;;;;;;7.82;92.83;98062.58;1697164;83;21357;-79
2022/11/21 10:38:23;;;;;;;4.65;1.65;;;;;;;7.86;93.00;98055.55;1702040;83;21073;-78
2022/11/21 10:41:05;;;;;;;4.30;1.40;;;;;;;7.91;92.87;98050.64;1696816;83;20969;-78
2022/11/21 10:46:57;;;;;;;5.28;2.00;;;;;;;7.82;92.96;98049.64;1693715;83;21549;-78
2022/11/21 10:49:31;;;;;;;4.08;2.12;;;;;;;7.80;93.20;98057.03;1683498;83;21055;-78
2022/11/21 10:52:13;;;;;;;4.10;2.50;;;;;;;7.81;92.98;98058.28;1696157;84;22002;-79
2022/11/21 10:55:07;;;;;;;6.00;2.58;;;;;;;7.82;93.42;98057.83;1694489;83;21105;-78
2022/11/21 10:57:50;;;;;;;3.65;2.05;;;;;;;7.82;93.96;98068.18;1701384;83;21183;-78
2022/11/21 11:00:23;;;;;;;2.40;1.60;;;;;;;7.88;93.88;98065.44;1710143;82;21551;-78
2022/11/21 11:03:03;;;;;;;4.28;1.82;;;;;;;7.94;93.31;98069.12;1694661;84;21011;-78
2022/11/21 11:05:36;;;;;;;4.15;1.80;;;;;;;7.88;93.12;98068.86;1710079;82;21085;-79
2022/11/21 11:08:13;;;;;;;3.02;1.65;;;;;;;7.89;92.84;98074.88;1709157;82;21023;-78
2022/11/21 11:11:03;;;;;;;4.28;2.08;;;;;;;7.94;93.04;98070.42;1709967;84;21081;-79
2022/11/21 11:13:35;;;;;;;4.70;1.82;;;;;;;7.97;93.08;98072.89;1710227;82;21478;-78
2022/11/21 11:16:16;;;;;;;3.08;1.55;;;;;;;7.97;92.37;98086.67;1698180;82;21582;-78
2022/11/21 11:19:00;;;;;;;2.15;1.10;;;;;;;7.96;92.40;98081.11;1707971;82;21337;-77
2022/11/21 11:21:45;;;;;;;2.37;1.30;;;;;;;7.96;91.78;98082.86;1710222;82;21653;-79
2022/11/21 11:24:19;;;;;;;3.27;1.82;;;;;;;7.79;91.75;98079.48;1709466;82;21030;-78
2022/11/21 11:26:58;;;;;;;3.80;1.80;;;;;;;7.70;91.77;98078.03;1718909;82;21050;-79
2022/11/21 11:29:34;;;;;;;3.15;1.40;;;;;;;7.73;92.12;98081.80;1709693;82;20986;-78
2022/11/21 11:32:06;;;;;;;2.20;1.20;;;;;;;7.67;91.64;98080.69;1710507;83;21070;-78
2022/11/21 11:34:59;;;;;;;2.80;1.40;;;;;;;7.65;91.35;98088.11;1709373;84;21599;-78
2022/11/21 11:37:41;;;;;;;3.47;1.30;;;;;;;7.61;91.42;98089.92;1711386;82;21174;-77
2022/11/21 11:40:41;;;;;;;5.45;1.55;;;;;;;7.48;90.34;98100.22;1693876;82;21596;-79
2022/11/21 11:52:36;;;;;;;2.33;1.60;;;;;;;7.22;91.45;98104.41;1689644;82;21108;-79
2022/11/21 11:55:09;;;;;;;1.90;1.30;;;;;;;7.20;91.43;98109.19;1708045;82;21110;-78
2022/11/21 11:57:38;;;;;;;4.30;1.25;;;;;;;7.13;91.87;98111.11;1713680;82;21086;-78
2022/11/21 12:00:28;;;;;;;3.20;1.62;;;;;;;7.11;91.97;98115.47;1710826;83;21085;-78
2022/11/21 12:03:01;;;;;;;2.35;1.35;;;;;;;7.13;91.80;98111.11;1696126;82;21070;-79
2022/11/21 12:05:31;;;;;;;1.87;1.15;;;;;;;7.14;92.05;98106.32;1708086;82;22130;-79
2022/11/21 12:08:19;;;;;;;2.52;1.25;;;;;;;7.13;92.18;98105.94;1706881;84;21010;-78
2022/11/21 12:13:39;;;;;;;3.50;1.40;;;;;;;7.09;91.94;98106.91;1709554;83;21129;-77
2022/11/21 12:16:11;;;;;;;3.42;1.75;;;;;;;7.14;91.94;98111.07;1709506;82;21073;-78
2022/11/21 12:18:47;;;;;;;3.20;1.20;;;;;;;7.11;92.54;98102.09;1701835;84;21146;-79
2022/11/21 12:21:17;;;;;;;1.98;1.12;;;;;;;7.14;92.17;98111.49;1708301;84;22210;-79
2022/11/21 12:23:51;;;;;;;1.00;0.90;;;;;;;7.12;91.96;98098.63;1715567;82;21036;-79
2022/11/21 12:26:45;;;;;;;2.20;1.27;;;;;;;7.16;91.99;98089.91;1712021;81;20980;-78